createdAt,value
2018-12-03T00:00:05.100Z,39.03
2018-12-03T00:02:35.458Z,40.40
2018-12-03T00:05:06.603Z,40.23
2018-12-03T00:07:37.052Z,41.10
2018-12-03T00:10:09.290Z,41.70
2018-12-03T00:12:39.626Z,43.40
2018-12-03T00:15:09.970Z,40.43
2018-12-03T00:17:40.329Z,43.03
2018-12-03T00:20:11.504Z,41.47
2018-12-03T00:22:41.864Z,40.80
2018-12-03T00:25:12.182Z,38.83
2018-12-03T00:27:51.642Z,43.73
2018-12-03T00:30:22.376Z,41.33
2018-12-03T00:32:52.742Z,44.47
2018-12-03T00:35:23.075Z,43.30
2018-12-03T00:37:53.428Z,42.83
2018-12-03T00:40:23.854Z,40.33
2018-12-03T00:42:54.215Z,41.70
2018-12-03T00:45:24.530Z,41.43
2018-12-03T00:47:54.783Z,41.50
2018-12-03T00:50:25.139Z,40.67
2018-12-03T00:52:55.420Z,43.27
2018-12-03T00:55:25.772Z,40.37
2018-12-03T00:57:56.146Z,41.93
2018-12-03T01:00:26.422Z,39.67
2018-12-03T01:02:56.739Z,41.10
2018-12-03T01:05:27.076Z,40.17
2018-12-03T01:07:57.458Z,39.90
2018-12-03T01:10:27.823Z,40.87
2018-12-03T01:12:58.142Z,38.10
2018-12-03T01:15:28.537Z,40.70
2018-12-03T01:17:58.788Z,42.07
2018-12-03T01:20:29.199Z,41.87
2018-12-03T01:22:59.554Z,40.10
2018-12-03T01:25:30.578Z,40.97
2018-12-03T01:28:00.883Z,41.33
2018-12-03T01:30:31.344Z,39.30
2018-12-03T01:33:01.853Z,35.73
2018-12-03T01:35:32.462Z,38.53
2018-12-03T01:38:02.947Z,37.43
2018-12-03T01:40:33.290Z,36.60
2018-12-03T01:43:03.652Z,34.97
2018-12-03T01:45:34.082Z,35.93
2018-12-03T01:48:04.406Z,37.27
2018-12-03T01:50:34.790Z,36.00
2018-12-03T01:53:05.397Z,34.67
2018-12-03T01:55:35.728Z,33.90
2018-12-03T01:58:06.144Z,34.70
2018-12-03T02:01:13.522Z,35.97
2018-12-03T02:03:42.552Z,38.97
2018-12-03T02:06:11.614Z,34.87
2018-12-03T02:08:40.679Z,33.80
2018-12-03T02:11:09.730Z,33.30
2018-12-03T02:13:38.801Z,32.53
2018-12-03T02:16:07.821Z,31.20
2018-12-03T02:18:36.842Z,36.23
2018-12-03T02:21:05.919Z,35.10
2018-12-03T02:23:34.981Z,34.70
2018-12-03T02:26:04.084Z,33.40
2018-12-03T02:28:33.126Z,31.20
2018-12-03T02:31:02.196Z,34.60
2018-12-03T02:33:31.225Z,31.13
2018-12-03T02:36:00.291Z,31.50
2018-12-03T02:38:29.307Z,30.63
2018-12-03T02:40:58.368Z,31.07
2018-12-03T02:43:27.432Z,29.40
2018-12-03T02:45:56.495Z,31.23
2018-12-03T02:48:25.528Z,28.87
2018-12-03T02:50:54.591Z,29.13
2018-12-03T02:53:23.612Z,28.93
2018-12-03T02:55:52.681Z,31.70
2018-12-03T02:58:21.704Z,28.20
2018-12-03T03:00:50.770Z,28.90
2018-12-03T03:03:19.790Z,28.80
2018-12-03T03:05:48.855Z,31.13
2018-12-03T03:08:17.923Z,28.77
2018-12-03T03:10:46.986Z,25.40
2018-12-03T03:13:16.003Z,27.57
2018-12-03T03:15:45.077Z,28.37
2018-12-03T03:18:14.094Z,30.63
2018-12-03T03:20:43.164Z,29.57
2018-12-03T03:23:12.227Z,29.80
2018-12-03T03:25:41.254Z,29.27
2018-12-03T03:28:10.308Z,26.67
2018-12-03T03:30:39.341Z,27.60
2018-12-03T03:33:08.391Z,29.70
2018-12-03T03:35:37.409Z,26.63
2018-12-03T03:38:06.566Z,30.10
2018-12-03T03:40:35.573Z,28.57
2018-12-03T03:43:04.897Z,28.13
2018-12-03T03:45:33.964Z,27.80
2018-12-03T03:48:03.023Z,27.27
2018-12-03T03:50:32.116Z,28.40
2018-12-03T03:53:01.182Z,27.43
2018-12-03T03:55:30.238Z,31.07
2018-12-03T03:57:59.315Z,28.27
2018-12-03T04:00:28.454Z,31.37
2018-12-03T04:02:57.455Z,30.57
2018-12-03T04:05:26.517Z,28.43
2018-12-03T04:07:55.544Z,29.27
2018-12-03T04:10:24.588Z,29.93
2018-12-03T04:12:53.609Z,32.47
2018-12-03T04:15:22.671Z,29.30
2018-12-03T04:17:51.764Z,28.97
2018-12-03T04:20:20.894Z,28.77
2018-12-03T04:22:49.911Z,29.37
2018-12-03T04:25:18.967Z,31.10
2018-12-03T04:27:48.092Z,32.77
2018-12-03T04:30:17.175Z,30.53
2018-12-03T04:32:46.189Z,30.77
2018-12-03T04:35:15.290Z,34.07
2018-12-03T04:37:44.416Z,37.33
2018-12-03T04:40:13.550Z,32.23
2018-12-03T04:42:42.613Z,33.20
2018-12-03T04:45:11.667Z,29.73
2018-12-03T04:47:40.733Z,46.37
2018-12-03T04:50:09.830Z,30.77
2018-12-03T04:52:38.896Z,31.07
2018-12-03T04:55:08.066Z,30.20
2018-12-03T04:57:37.114Z,33.27
2018-12-03T05:00:06.817Z,30.90
2018-12-03T05:02:35.841Z,29.87
2018-12-03T05:05:06.053Z,31.17
2018-12-03T05:07:35.111Z,31.10
2018-12-03T05:10:05.650Z,29.20
2018-12-03T05:12:34.711Z,32.27
2018-12-03T05:15:04.371Z,30.50
2018-12-03T05:17:33.429Z,29.30
2018-12-03T05:20:02.557Z,30.13
2018-12-03T05:22:31.603Z,29.30
2018-12-03T05:25:00.612Z,28.40
2018-12-03T05:27:29.660Z,30.67
2018-12-03T05:29:58.686Z,29.10
2018-12-03T05:32:27.736Z,29.23
2018-12-03T05:34:56.752Z,31.50
2018-12-03T05:37:25.809Z,36.07
2018-12-03T05:39:54.842Z,41.53
2018-12-03T05:42:23.883Z,45.97
2018-12-03T05:44:52.900Z,33.80
2018-12-03T05:47:21.918Z,31.23
2018-12-03T05:49:50.977Z,29.10
2018-12-03T05:52:19.997Z,29.80
2018-12-03T05:54:49.132Z,31.13
2018-12-03T05:57:18.160Z,31.37
2018-12-03T05:59:47.229Z,30.47
2018-12-03T06:02:16.248Z,32.40
2018-12-03T06:04:45.290Z,31.60
2018-12-03T06:07:14.328Z,30.07
2018-12-03T06:09:43.369Z,30.50
2018-12-03T06:12:12.428Z,29.00
2018-12-03T06:14:41.442Z,29.80
2018-12-03T06:17:10.483Z,31.77
2018-12-03T06:19:39.533Z,31.73
2018-12-03T06:22:08.554Z,28.43
2018-12-03T06:24:37.682Z,30.47
2018-12-03T06:27:06.700Z,29.77
2018-12-03T06:29:35.776Z,27.00
2018-12-03T06:32:05.617Z,28.60
2018-12-03T06:34:34.828Z,29.73
2018-12-03T06:37:04.503Z,31.53
2018-12-03T06:39:33.540Z,29.13
2018-12-03T06:42:02.561Z,31.70
2018-12-03T06:44:32.013Z,33.40
2018-12-03T06:47:01.021Z,33.37
2018-12-03T06:49:30.062Z,32.53
2018-12-03T06:51:59.088Z,34.93
2018-12-03T06:54:28.124Z,30.70
2018-12-03T06:56:57.142Z,32.23
2018-12-03T06:59:26.188Z,31.90
2018-12-03T07:01:55.317Z,33.90
2018-12-03T07:04:24.363Z,31.40
2018-12-03T07:06:53.393Z,30.73
2018-12-03T07:09:22.435Z,32.90
2018-12-03T07:11:51.453Z,34.43
2018-12-03T07:14:20.487Z,32.17
2018-12-03T07:16:49.538Z,33.90
2018-12-03T07:19:18.680Z,34.50
2018-12-03T07:21:47.734Z,35.93
2018-12-03T07:24:16.800Z,36.57
2018-12-03T07:26:45.948Z,33.80
2018-12-03T07:29:14.958Z,34.70
2018-12-03T07:31:44.007Z,34.93
2018-12-03T07:34:13.032Z,33.53
2018-12-03T07:36:42.072Z,32.40
2018-12-03T07:39:11.120Z,35.60
2018-12-03T07:41:40.134Z,32.37
2018-12-03T07:44:09.179Z,35.50
2018-12-03T07:46:38.186Z,34.40
2018-12-03T07:49:07.307Z,35.17
2018-12-03T07:51:36.353Z,33.40
2018-12-03T07:54:05.461Z,32.80
2018-12-03T07:56:34.504Z,34.80
2018-12-03T07:59:03.583Z,34.30
2018-12-03T08:01:32.603Z,34.67
2018-12-03T08:04:01.657Z,36.40
2018-12-03T08:06:30.669Z,34.87
2018-12-03T08:08:59.727Z,36.83
2018-12-03T08:11:28.776Z,35.53
2018-12-03T08:13:57.785Z,35.57
2018-12-03T08:16:26.854Z,36.20
2018-12-03T08:18:55.908Z,34.57
2018-12-03T08:21:24.941Z,34.50
2018-12-03T08:23:53.958Z,36.10
2018-12-03T08:26:22.983Z,36.40
2018-12-03T08:28:52.053Z,35.70
2018-12-03T08:31:21.069Z,36.10
2018-12-03T08:33:50.133Z,36.27
2018-12-03T08:36:19.139Z,36.87
2018-12-03T08:38:48.151Z,39.50
2018-12-03T08:41:17.205Z,38.40
2018-12-03T08:43:46.291Z,39.77
2018-12-03T08:46:15.317Z,43.90
2018-12-03T08:48:44.322Z,39.93
2018-12-03T08:51:13.370Z,37.40
2018-12-03T08:53:44.179Z,38.17
2018-12-03T08:56:13.223Z,40.40
2018-12-03T08:58:42.243Z,37.60
2018-12-03T09:01:11.290Z,39.10
2018-12-03T09:03:40.327Z,36.23
2018-12-03T09:06:09.399Z,35.97
2018-12-03T09:08:38.520Z,40.67
2018-12-03T09:11:07.612Z,39.30
2018-12-03T09:13:36.671Z,37.13
2018-12-03T09:16:06.055Z,34.57
2018-12-03T09:18:35.174Z,37.30
2018-12-03T09:21:08.103Z,39.20
2018-12-03T09:23:37.237Z,35.30
2018-12-03T09:26:06.458Z,37.13
2018-12-03T09:28:35.477Z,37.07
2018-12-03T09:31:04.862Z,37.27
2018-12-03T09:33:33.998Z,41.03
2018-12-03T09:36:03.080Z,35.90
2018-12-03T09:38:34.141Z,36.47
2018-12-03T09:41:05.985Z,34.20
2018-12-03T09:43:34.463Z,35.90
2018-12-03T09:46:03.483Z,33.00
2018-12-03T09:48:32.528Z,36.57
2018-12-03T09:51:01.544Z,34.00
2018-12-03T09:53:30.598Z,32.50
2018-12-03T09:55:59.622Z,35.63
2018-12-03T09:58:29.250Z,36.73
2018-12-03T10:00:58.279Z,36.57
2018-12-03T10:03:27.295Z,32.10
2018-12-03T10:05:56.343Z,34.70
2018-12-03T10:08:27.305Z,33.77
2018-12-03T10:10:56.347Z,35.50
2018-12-03T10:13:25.357Z,35.97
2018-12-03T10:15:54.407Z,34.57
2018-12-03T10:18:23.426Z,33.90
2018-12-03T10:20:52.542Z,33.53
2018-12-03T10:23:21.588Z,35.00
2018-12-03T10:25:51.210Z,34.90
2018-12-03T10:28:20.235Z,34.33
2018-12-03T10:30:49.282Z,33.80
2018-12-03T10:33:18.386Z,36.27
2018-12-03T10:35:47.461Z,35.03
2018-12-03T10:38:16.537Z,33.43
2018-12-03T10:40:45.610Z,34.77
2018-12-03T10:43:14.662Z,34.20
2018-12-03T10:45:43.684Z,35.57
2018-12-03T10:48:12.715Z,34.53
2018-12-03T10:50:42.007Z,32.57
2018-12-03T10:53:11.021Z,33.80
2018-12-03T10:55:40.703Z,32.20
2018-12-03T10:58:09.784Z,31.37
2018-12-03T11:00:56.848Z,33.23
2018-12-03T11:03:27.734Z,32.47
2018-12-03T11:06:18.438Z,31.70
2018-12-03T11:08:47.635Z,34.50
2018-12-03T11:11:16.722Z,33.83
2018-12-03T11:13:45.914Z,35.03
2018-12-03T11:16:18.946Z,37.17
2018-12-03T11:18:48.264Z,36.60
2018-12-03T11:21:17.386Z,35.07
2018-12-03T11:23:46.432Z,38.40
2018-12-03T11:26:15.434Z,36.67
2018-12-03T11:28:44.552Z,37.50
2018-12-03T11:31:18.713Z,32.60
2018-12-03T11:33:47.762Z,34.90
2018-12-03T11:36:17.491Z,34.83
2018-12-03T11:38:52.180Z,35.10
2018-12-03T11:41:21.196Z,34.97
2018-12-03T11:43:50.224Z,33.67
2018-12-03T11:46:19.296Z,34.93
2018-12-03T11:48:48.311Z,33.73
2018-12-03T11:51:17.357Z,35.00
2018-12-03T11:53:46.374Z,34.27
2018-12-03T11:56:15.416Z,35.00
2018-12-03T11:58:44.460Z,35.27
2018-12-03T12:01:13.478Z,35.23
2018-12-03T12:03:42.899Z,33.20
2018-12-03T12:06:12.152Z,54.97
2018-12-03T12:08:41.194Z,94.33
2018-12-03T12:11:10.231Z,130.10
2018-12-03T12:13:39.282Z,46.10
2018-12-03T12:16:08.322Z,35.13
2018-12-03T12:18:37.350Z,33.90
2018-12-03T12:21:06.467Z,35.97
2018-12-03T12:23:35.595Z,32.50
2018-12-03T12:26:06.081Z,31.83
2018-12-03T12:28:38.197Z,32.90
2018-12-03T12:31:06.214Z,29.93
2018-12-03T12:33:35.367Z,31.47
2018-12-03T12:36:05.052Z,31.90
2018-12-03T12:38:34.121Z,30.80
2018-12-03T12:41:03.124Z,30.77
2018-12-03T12:43:32.186Z,32.57
2018-12-03T12:46:01.201Z,31.13
2018-12-03T12:48:30.246Z,32.03
2018-12-03T12:50:59.408Z,29.30
2018-12-03T12:53:28.493Z,30.37
2018-12-03T12:55:57.531Z,32.27
2018-12-03T12:58:26.553Z,35.23
2018-12-03T13:00:55.594Z,38.50
2018-12-03T13:03:24.618Z,34.87
2018-12-03T13:05:53.663Z,36.37
2018-12-03T13:08:22.718Z,36.00
2018-12-03T13:10:51.762Z,34.90
2018-12-03T13:13:20.821Z,35.40
2018-12-03T13:15:49.824Z,37.77
2018-12-03T13:18:18.884Z,38.50
2018-12-03T13:20:47.895Z,37.07
2018-12-03T13:23:17.013Z,36.30
2018-12-03T13:25:46.031Z,34.37
2018-12-03T13:28:15.051Z,37.30
2018-12-03T13:30:44.091Z,37.87
2018-12-03T13:33:13.111Z,35.97
2018-12-03T13:35:42.155Z,38.70
2018-12-03T13:38:11.216Z,38.80
2018-12-03T13:40:40.232Z,38.87
2018-12-03T13:43:09.360Z,40.77
2018-12-03T13:45:38.379Z,40.00
2018-12-03T13:48:07.685Z,39.97
2018-12-03T13:50:36.709Z,36.60
2018-12-03T13:53:05.899Z,37.13
2018-12-03T13:55:34.964Z,37.97
2018-12-03T13:58:04.086Z,37.97
2018-12-03T14:00:33.114Z,37.07
2018-12-03T14:03:02.223Z,36.63
2018-12-03T14:05:31.252Z,37.23
2018-12-03T14:08:00.303Z,37.97
2018-12-03T14:10:29.672Z,40.57
2018-12-03T14:12:58.802Z,41.07
2018-12-03T14:15:28.204Z,43.47
2018-12-03T14:17:57.314Z,39.07
2018-12-03T14:20:27.122Z,37.27
2018-12-03T14:22:56.529Z,38.23
2018-12-03T14:25:25.661Z,36.80
2018-12-03T14:27:54.682Z,38.37
2018-12-03T14:30:23.731Z,34.80
2018-12-03T14:32:52.851Z,37.03
2018-12-03T14:35:21.889Z,37.70
2018-12-03T14:37:50.906Z,37.93
2018-12-03T14:40:19.960Z,37.40
2018-12-03T14:42:49.088Z,37.50
2018-12-03T14:45:18.154Z,38.33
2018-12-03T14:47:47.237Z,36.57
2018-12-03T14:50:16.294Z,39.07
2018-12-03T14:52:45.337Z,36.93
2018-12-03T14:55:14.358Z,37.97
2018-12-03T14:57:43.408Z,37.10
2018-12-03T15:00:13.631Z,38.60
2018-12-03T15:02:43.546Z,37.10
2018-12-03T15:05:13.074Z,35.77
2018-12-03T15:07:42.101Z,36.97
2018-12-03T15:10:11.156Z,37.57
2018-12-03T15:12:40.200Z,40.00
2018-12-03T15:15:09.296Z,38.87
2018-12-03T15:17:38.341Z,39.40
2018-12-03T15:20:07.651Z,41.23
2018-12-03T15:22:36.710Z,40.00
2018-12-03T15:25:06.867Z,38.70
2018-12-03T15:27:35.918Z,40.07
2018-12-03T15:30:05.787Z,38.23
2018-12-03T15:32:36.593Z,40.00
2018-12-03T15:35:05.880Z,41.27
2018-12-03T15:37:34.907Z,37.97
2018-12-03T15:40:05.788Z,42.20
2018-12-03T15:42:34.891Z,38.37
2018-12-03T15:45:05.579Z,38.07
2018-12-03T15:47:34.591Z,38.97
2018-12-03T15:50:03.845Z,35.27
2018-12-03T15:52:32.956Z,35.33
2018-12-03T15:55:02.045Z,34.63
2018-12-03T15:57:31.100Z,35.20
2018-12-03T16:00:00.120Z,36.07
2018-12-03T16:02:29.166Z,35.20
2018-12-03T16:04:58.190Z,36.90
2018-12-03T16:07:27.206Z,37.00
2018-12-03T16:09:56.258Z,41.63
2018-12-03T16:12:25.353Z,47.60
2018-12-03T16:14:54.417Z,53.67
2018-12-03T16:17:23.432Z,50.83
2018-12-03T16:19:52.499Z,56.17
2018-12-03T16:22:21.634Z,57.87
2018-12-03T16:24:50.654Z,61.03
2018-12-03T16:27:19.683Z,61.87
2018-12-03T16:29:48.737Z,68.27
2018-12-03T16:32:17.787Z,62.97
2018-12-03T16:34:46.812Z,56.80
2018-12-03T16:37:15.876Z,58.83
2018-12-03T16:39:44.900Z,58.60
2018-12-03T16:42:13.924Z,59.70
2018-12-03T16:44:43.038Z,61.97
2018-12-03T16:47:12.066Z,64.33
2018-12-03T16:49:41.132Z,61.40
2018-12-03T16:52:10.157Z,62.20
2018-12-03T16:54:39.178Z,61.43
2018-12-03T16:57:08.234Z,58.37
2018-12-03T16:59:37.264Z,57.37
2018-12-03T17:02:06.315Z,60.03
2018-12-03T17:04:35.446Z,55.10
2018-12-03T17:07:04.654Z,54.60
2018-12-03T17:09:33.755Z,58.73
2018-12-03T17:12:02.823Z,56.43
2018-12-03T17:14:31.870Z,60.70
2018-12-03T17:17:00.892Z,61.63
2018-12-03T17:19:30.645Z,58.63
2018-12-03T17:22:00.895Z,55.57
2018-12-03T17:24:30.284Z,59.13
2018-12-03T17:26:59.309Z,57.13
2018-12-03T17:29:28.375Z,57.27
2018-12-03T17:31:57.386Z,58.73
2018-12-03T17:34:26.434Z,53.17
2018-12-03T17:36:55.481Z,56.40
2018-12-03T17:39:24.557Z,49.43
2018-12-03T17:41:53.707Z,51.30
2018-12-03T17:44:22.720Z,45.90
2018-12-03T17:46:51.781Z,49.60
2018-12-03T17:49:20.807Z,47.87
2018-12-03T17:51:49.820Z,51.50
2018-12-03T17:54:18.870Z,49.93
2018-12-03T17:56:47.892Z,49.17
2018-12-03T17:59:16.949Z,51.20
2018-12-03T18:01:45.962Z,48.20
2018-12-03T18:04:15.064Z,47.00
2018-12-03T18:06:44.054Z,50.00
2018-12-03T18:09:13.110Z,46.07
2018-12-03T18:11:42.222Z,46.80
2018-12-03T18:14:11.243Z,46.30
2018-12-03T18:16:42.126Z,52.73
2018-12-03T18:19:11.185Z,48.50
2018-12-03T18:21:40.236Z,48.40
2018-12-03T18:24:09.250Z,49.30
2018-12-03T18:26:38.302Z,49.77
2018-12-03T18:29:07.311Z,49.97
2018-12-03T18:31:36.361Z,52.13
2018-12-03T18:34:05.417Z,52.03
2018-12-03T18:36:34.526Z,55.83
2018-12-03T18:39:06.321Z,62.43
2018-12-03T18:41:35.403Z,60.57
2018-12-03T18:44:04.501Z,57.50
2018-12-03T18:46:33.932Z,60.10
2018-12-03T18:49:03.704Z,60.30
2018-12-03T18:51:32.728Z,101.83
2018-12-03T18:54:03.570Z,103.93
2018-12-03T18:56:32.602Z,69.00
2018-12-03T18:59:02.745Z,61.80
2018-12-03T19:01:31.834Z,60.97
2018-12-03T19:04:00.875Z,67.17
2018-12-03T19:06:30.103Z,79.40
2018-12-03T19:08:59.140Z,98.47
2018-12-03T19:11:28.252Z,94.30
2018-12-03T19:13:57.297Z,88.87
2018-12-03T19:16:26.374Z,112.33
2018-12-03T19:18:55.471Z,67.47
2018-12-03T19:21:24.551Z,61.13
2018-12-03T19:23:53.570Z,58.70
2018-12-03T19:26:22.588Z,60.67
2018-12-03T19:28:53.520Z,60.80
2018-12-03T19:31:22.616Z,61.63
2018-12-03T19:33:51.686Z,67.67
2018-12-03T19:36:20.727Z,68.17
2018-12-03T19:38:49.778Z,71.13
2018-12-03T19:41:18.821Z,73.27
2018-12-03T19:43:47.841Z,70.83
2018-12-03T19:46:19.293Z,71.13
2018-12-03T19:48:48.314Z,74.50
2018-12-03T19:51:17.374Z,75.30
2018-12-03T19:53:46.409Z,73.80
2018-12-03T19:56:15.474Z,73.80
2018-12-03T19:58:44.516Z,79.67
2018-12-03T20:01:13.568Z,88.00
2018-12-03T20:03:42.669Z,92.27
2018-12-03T20:06:11.730Z,88.70
2018-12-03T20:08:40.758Z,90.43
2018-12-03T20:11:09.908Z,88.07
2018-12-03T20:13:38.929Z,93.20
2018-12-03T20:16:07.963Z,87.40
2018-12-03T20:18:37.017Z,91.20
2018-12-03T20:21:06.073Z,78.60
2018-12-03T20:23:35.152Z,138.83
2018-12-03T20:26:04.974Z,105.27
2018-12-03T20:28:35.691Z,81.53
2018-12-03T20:31:06.982Z,81.43
2018-12-03T20:33:37.280Z,71.23
2018-12-03T20:36:07.520Z,76.47
2018-12-03T20:38:36.658Z,75.97
2018-12-03T20:41:05.758Z,79.07
2018-12-03T20:43:34.888Z,77.10
2018-12-03T20:46:05.695Z,76.50
2018-12-03T20:48:38.475Z,82.23
2018-12-03T20:51:08.836Z,73.60
2018-12-03T20:53:38.042Z,72.37
2018-12-03T20:56:07.095Z,73.30
2018-12-03T20:58:36.125Z,75.50
2018-12-03T21:01:05.346Z,65.03
2018-12-03T21:03:34.376Z,70.80
2018-12-03T21:06:03.436Z,66.67
2018-12-03T21:08:32.465Z,70.53
2018-12-03T21:11:02.814Z,69.87
2018-12-03T21:13:31.941Z,68.00
2018-12-03T21:16:00.999Z,76.00
2018-12-03T21:18:30.094Z,75.73
2018-12-03T21:20:59.374Z,76.10
2018-12-03T21:23:28.455Z,69.07
2018-12-03T21:25:57.485Z,69.67
2018-12-03T21:28:26.540Z,70.00
2018-12-03T21:30:56.543Z,65.07
2018-12-03T21:33:25.589Z,63.60
2018-12-03T21:35:54.609Z,63.73
2018-12-03T21:38:23.684Z,62.90
2018-12-03T21:40:52.797Z,61.43
2018-12-03T21:43:21.883Z,59.17
2018-12-03T21:45:50.936Z,57.07
2018-12-03T21:48:19.972Z,59.00
2018-12-03T21:50:49.019Z,59.30
2018-12-03T21:53:18.033Z,63.23
2018-12-03T21:55:47.093Z,63.30
2018-12-03T21:58:16.130Z,55.40
2018-12-03T22:00:45.285Z,54.67
2018-12-03T22:03:14.335Z,55.40
2018-12-03T22:05:43.388Z,54.50
2018-12-03T22:08:12.418Z,56.90
2018-12-03T22:10:41.499Z,56.20
2018-12-03T22:13:10.519Z,58.40
2018-12-03T22:15:39.535Z,60.07
2018-12-03T22:18:08.590Z,56.60
2018-12-03T22:20:37.648Z,57.70
2018-12-03T22:23:06.752Z,57.00
2018-12-03T22:25:36.090Z,55.90
2018-12-03T22:28:05.141Z,60.50
2018-12-03T22:30:34.173Z,58.30
2018-12-03T22:33:03.238Z,55.90
2018-12-03T22:35:32.307Z,58.43
2018-12-03T22:38:01.346Z,55.60
2018-12-03T22:40:30.389Z,55.23
2018-12-03T22:42:59.416Z,56.23
2018-12-03T22:45:28.482Z,55.67
2018-12-03T22:47:57.535Z,56.47
2018-12-03T22:50:26.612Z,58.97
2018-12-03T22:52:55.669Z,55.90
2018-12-03T22:55:24.734Z,55.43
2018-12-03T22:57:53.756Z,53.87
2018-12-03T23:00:36.820Z,56.00
2018-12-03T23:03:05.914Z,54.20
2018-12-03T23:05:34.945Z,49.17
2018-12-03T23:08:04.007Z,48.10
2018-12-03T23:10:33.028Z,46.60
2018-12-03T23:13:02.384Z,48.20
2018-12-03T23:15:31.429Z,47.00
2018-12-03T23:18:00.419Z,49.57
2018-12-03T23:20:29.486Z,50.53
2018-12-03T23:22:58.535Z,54.30
2018-12-03T23:25:27.549Z,54.30
2018-12-03T23:27:56.598Z,55.50
2018-12-03T23:30:25.610Z,54.17
2018-12-03T23:32:54.697Z,53.10
2018-12-03T23:35:23.715Z,49.93
2018-12-03T23:37:52.722Z,51.53
2018-12-03T23:40:21.773Z,49.17
2018-12-03T23:42:50.791Z,49.00
2018-12-03T23:45:19.808Z,52.67
2018-12-03T23:47:48.908Z,46.90
2018-12-03T23:50:17.922Z,50.23
2018-12-03T23:52:46.968Z,46.57
2018-12-03T23:55:15.989Z,49.20
2018-12-03T23:57:45.036Z,50.33
